createdAt,value
2023-01-11T00:01:36.851Z,42.19
2023-01-11T00:04:15.262Z,45.23
2023-01-11T00:06:44.199Z,43.44
2023-01-11T00:09:12.787Z,43.48
2023-01-11T00:11:39.808Z,46.75
2023-01-11T00:14:15.440Z,42.24
2023-01-11T00:16:42.389Z,43.89
2023-01-11T00:19:09.253Z,39.95
2023-01-11T00:21:38.991Z,43.71
2023-01-11T00:24:15.077Z,38.31
2023-01-11T00:26:44.270Z,40.24
2023-01-11T00:29:20.036Z,40.40
2023-01-11T00:31:47.251Z,43.38
2023-01-11T00:34:14.075Z,40.07
2023-01-11T00:36:43.454Z,45.05
2023-01-11T00:39:10.597Z,40.26
2023-01-11T00:41:57.160Z,39.81
2023-01-11T00:44:44.110Z,43.95
2023-01-11T00:47:39.035Z,39.53
2023-01-11T00:50:26.509Z,42.25
2023-01-11T00:52:56.493Z,44.75
2023-01-11T00:55:29.837Z,46.60
2023-01-11T00:58:08.670Z,46.25
2023-01-11T01:00:37.332Z,44.87
2023-01-11T01:03:06.342Z,43.36
2023-01-11T01:05:44.322Z,44.14
2023-01-11T01:08:13.684Z,41.50
2023-01-11T01:10:49.247Z,48.06
2023-01-11T01:13:39.848Z,47.14
2023-01-11T01:16:07.229Z,47.30
2023-01-11T01:18:34.116Z,44.24
2023-01-11T01:21:03.397Z,45.61
2023-01-11T01:23:30.619Z,45.42
2023-01-11T01:28:36.647Z,49.54
2023-01-11T01:31:04.583Z,43.17
2023-01-11T01:33:32.908Z,48.63
2023-01-11T01:36:04.574Z,47.26
2023-01-11T01:38:31.697Z,42.56
2023-01-11T01:40:58.662Z,49.44
2023-01-11T01:43:51.036Z,42.75
2023-01-11T01:46:21.243Z,44.02
2023-01-11T01:48:56.226Z,45.25
2023-01-11T01:51:31.089Z,45.87
2023-01-11T01:54:02.782Z,44.82
2023-01-11T01:56:36.744Z,44.28
2023-01-11T01:59:10.904Z,47.56
2023-01-11T02:01:48.529Z,45.45
2023-01-11T02:04:27.472Z,44.09
2023-01-11T02:06:59.904Z,43.07
2023-01-11T02:09:55.985Z,44.51
2023-01-11T02:12:30.300Z,47.78
2023-01-11T02:15:03.462Z,45.29
2023-01-11T02:17:31.954Z,46.28
2023-01-11T02:20:08.698Z,43.67
2023-01-11T02:23:08.365Z,47.13
2023-01-11T02:26:21.779Z,43.42
2023-01-11T02:28:57.498Z,51.73
2023-01-11T02:31:39.660Z,48.06
2023-01-11T02:34:31.545Z,47.45
2023-01-11T02:37:11.408Z,45.02
2023-01-11T02:39:49.945Z,47.81
2023-01-11T02:43:01.196Z,46.51
2023-01-11T02:45:46.014Z,50.18
2023-01-11T02:48:35.236Z,40.57
2023-01-11T02:51:08.508Z,48.51
2023-01-11T02:53:35.527Z,45.15
2023-01-11T02:56:13.383Z,43.99
2023-01-11T02:58:45.184Z,44.59
2023-01-11T03:01:22.997Z,46.52
2023-01-11T03:04:07.897Z,46.16
2023-01-11T03:06:35.850Z,48.55
2023-01-11T03:09:38.237Z,46.34
2023-01-11T03:12:42.127Z,45.71
2023-01-11T03:15:19.461Z,52.58
2023-01-11T03:18:16.364Z,47.14
2023-01-11T03:21:02.074Z,50.59
2023-01-11T03:23:44.457Z,45.94
2023-01-11T03:26:29.324Z,48.10
2023-01-11T03:29:13.374Z,45.55
2023-01-11T03:32:11.514Z,44.24
2023-01-11T03:34:57.504Z,50.90
2023-01-11T03:37:50.996Z,45.79
2023-01-11T03:40:41.588Z,48.66
2023-01-11T03:43:14.171Z,43.39
2023-01-11T03:46:09.478Z,42.30
2023-01-11T03:49:26.774Z,44.38
2023-01-11T03:52:02.041Z,44.49
2023-01-11T03:54:38.360Z,44.08
2023-01-11T03:57:12.185Z,43.08
2023-01-11T03:59:42.931Z,46.10
2023-01-11T04:02:25.161Z,46.23
2023-01-11T04:04:55.255Z,44.90
2023-01-11T04:07:23.880Z,49.72
2023-01-11T04:09:58.673Z,47.16
2023-01-11T04:12:28.175Z,47.09
2023-01-11T04:14:55.014Z,48.46
2023-01-11T04:17:21.819Z,46.33
2023-01-11T04:19:50.991Z,46.17
2023-01-11T04:22:21.350Z,45.72
2023-01-11T04:24:48.869Z,45.94
2023-01-11T04:27:15.726Z,47.21
2023-01-11T04:29:42.888Z,46.25
2023-01-11T04:32:13.661Z,45.90
2023-01-11T04:34:43.909Z,46.89
2023-01-11T04:37:13.433Z,44.61
2023-01-11T04:39:45.639Z,46.04
2023-01-11T04:42:18.861Z,48.27
2023-01-11T04:44:48.876Z,45.46
2023-01-11T04:47:23.407Z,45.38
2023-01-11T04:49:50.778Z,44.35
2023-01-11T04:52:21.370Z,46.96
2023-01-11T04:54:51.663Z,45.51
2023-01-11T04:57:18.827Z,50.14
2023-01-11T04:59:55.241Z,52.16
2023-01-11T05:02:25.293Z,48.63
2023-01-11T05:04:52.149Z,44.54
2023-01-11T05:07:19.766Z,49.45
2023-01-11T05:10:00.658Z,45.39
2023-01-11T05:12:38.000Z,43.69
2023-01-11T05:15:19.331Z,43.77
2023-01-11T05:17:49.378Z,43.52
2023-01-11T05:20:16.399Z,44.04
2023-01-11T05:22:48.973Z,48.84
2023-01-11T05:25:21.678Z,53.92
2023-01-11T05:27:56.087Z,44.30
2023-01-11T05:30:23.524Z,45.20
2023-01-11T05:32:56.112Z,44.22
2023-01-11T05:35:26.205Z,44.57
2023-01-11T05:37:58.787Z,44.80
2023-01-11T05:40:37.769Z,42.96
2023-01-11T05:43:12.210Z,45.57
2023-01-11T05:45:40.324Z,44.77
2023-01-11T05:48:08.903Z,45.42
2023-01-11T05:50:36.183Z,46.48
2023-01-11T05:53:09.789Z,43.00
2023-01-11T05:55:39.758Z,46.57
2023-01-11T05:58:11.530Z,45.18
2023-01-11T06:01:06.087Z,43.38
2023-01-11T06:03:35.461Z,43.43
2023-01-11T06:06:05.058Z,45.61
2023-01-11T06:08:38.336Z,43.96
2023-01-11T06:11:05.414Z,44.27
2023-01-11T06:13:36.050Z,43.38
2023-01-11T06:16:16.071Z,43.70
2023-01-11T06:18:45.631Z,44.36
2023-01-11T06:21:21.334Z,44.20
2023-01-11T06:23:53.801Z,44.31
2023-01-11T06:26:25.137Z,44.60
2023-01-11T06:28:52.060Z,46.60
2023-01-11T06:31:21.566Z,47.25
2023-01-11T06:33:48.497Z,46.17
2023-01-11T06:36:19.171Z,44.19
2023-01-11T06:38:46.031Z,45.73
2023-01-11T06:41:13.684Z,46.19
2023-01-11T06:43:42.675Z,44.66
2023-01-11T06:46:19.185Z,47.56
2023-01-11T06:48:52.994Z,46.23
2023-01-11T06:51:25.431Z,51.14
2023-01-11T06:53:52.279Z,45.75
2023-01-11T06:56:19.244Z,44.50
2023-01-11T06:58:53.660Z,46.83
2023-01-11T07:01:27.043Z,45.47
2023-01-11T07:04:00.852Z,45.91
2023-01-11T07:06:29.365Z,44.90
2023-01-11T07:08:58.880Z,45.23
2023-01-11T07:11:33.675Z,46.34
2023-01-11T07:14:03.413Z,46.14
2023-01-11T07:16:30.233Z,54.82
2023-01-11T07:18:57.068Z,54.76
2023-01-11T07:21:23.973Z,46.29
2023-01-11T07:23:55.659Z,45.45
2023-01-11T07:26:29.977Z,49.01
2023-01-11T07:28:59.320Z,51.39
2023-01-11T07:31:26.263Z,46.92
2023-01-11T07:33:55.989Z,51.22
2023-01-11T07:36:27.325Z,52.23
2023-01-11T07:38:57.036Z,48.20
2023-01-11T07:41:43.031Z,52.43
2023-01-11T07:44:10.573Z,48.71
2023-01-11T07:46:40.062Z,46.18
2023-01-11T07:49:07.697Z,45.34
2023-01-11T07:51:34.907Z,45.30
2023-01-11T07:54:04.171Z,46.08
2023-01-11T07:56:31.531Z,47.22
2023-01-11T07:59:01.347Z,52.85
2023-01-11T08:01:31.348Z,49.04
2023-01-11T08:03:58.189Z,46.06
2023-01-11T08:06:25.024Z,48.40
2023-01-11T08:08:53.873Z,52.72
2023-01-11T08:14:43.917Z,51.88
2023-01-11T08:17:22.181Z,41.43
2023-01-11T08:19:48.990Z,48.48
2023-01-11T08:22:17.669Z,46.13
2023-01-11T08:24:44.958Z,42.86
2023-01-11T08:27:11.835Z,45.80
2023-01-11T08:29:40.059Z,44.09
2023-01-11T08:32:06.855Z,47.80
2023-01-11T08:34:34.852Z,47.96
2023-01-11T08:37:04.608Z,45.41
2023-01-11T08:39:32.232Z,50.96
2023-01-11T08:44:51.923Z,51.39
2023-01-11T08:47:25.368Z,52.20
2023-01-11T08:49:52.197Z,48.10
2023-01-11T08:52:24.632Z,44.97
2023-01-11T08:55:08.813Z,42.96
2023-01-11T08:57:36.866Z,51.89
2023-01-11T09:00:06.301Z,48.93
2023-01-11T09:02:36.731Z,48.13
2023-01-11T09:05:07.429Z,48.67
2023-01-11T09:07:34.545Z,49.31
2023-01-11T09:10:10.708Z,43.87
2023-01-11T09:12:45.073Z,41.71
2023-01-11T09:15:12.010Z,50.93
2023-01-11T09:17:39.999Z,44.77
2023-01-11T09:20:13.116Z,41.87
2023-01-11T09:23:15.268Z,42.70
2023-01-11T09:25:45.279Z,42.88
2023-01-11T09:28:12.727Z,42.35
2023-01-11T09:30:39.996Z,43.32
2023-01-11T09:33:09.262Z,43.95
2023-01-11T09:35:38.735Z,41.84
2023-01-11T09:38:09.075Z,42.55
2023-01-11T09:41:08.622Z,43.48
2023-01-11T09:43:54.153Z,41.08
2023-01-11T09:46:22.280Z,42.31
2023-01-11T09:48:56.519Z,39.99
2023-01-11T09:51:41.801Z,39.69
2023-01-11T09:54:26.214Z,41.86
2023-01-11T09:57:16.633Z,48.56
2023-01-11T09:59:54.405Z,40.59
2023-01-11T10:03:08.173Z,39.35
2023-01-11T10:05:59.615Z,40.60
2023-01-11T10:18:29.329Z,35.11
2023-01-11T10:19:10.384Z,35.74
2023-01-11T10:22:45.047Z,35.52
2023-01-11T10:25:54.560Z,32.69
2023-01-11T10:32:07.985Z,36.92
2023-01-11T10:42:22.049Z,33.49
2023-01-11T10:45:40.801Z,34.96
2023-01-11T10:48:25.684Z,34.11
2023-01-11T10:51:37.097Z,34.42
2023-01-11T10:54:34.579Z,37.55
2023-01-11T10:57:20.146Z,35.59
2023-01-11T11:00:08.206Z,38.62
2023-01-11T11:02:54.400Z,35.97
2023-01-11T11:05:43.109Z,35.48
2023-01-11T11:08:33.911Z,35.90
2023-01-11T11:11:22.440Z,36.11
2023-01-11T11:14:04.790Z,34.04
2023-01-11T11:16:54.701Z,33.14
2023-01-11T11:19:26.843Z,35.87
2023-01-11T11:21:54.070Z,33.90
2023-01-11T11:24:44.284Z,38.81
2023-01-11T11:27:45.829Z,33.85
2023-01-11T11:30:25.636Z,37.35
2023-01-11T11:33:00.746Z,33.21
2023-01-11T11:35:40.062Z,37.70
2023-01-11T11:38:30.883Z,34.12
2023-01-11T11:40:59.406Z,32.55
2023-01-11T11:43:28.424Z,35.91
2023-01-11T11:45:59.451Z,32.77
2023-01-11T11:48:32.856Z,35.76
2023-01-11T11:51:03.200Z,34.59
2023-01-11T11:53:46.169Z,33.19
2023-01-11T11:56:23.333Z,35.78
2023-01-11T11:58:50.984Z,40.90
2023-01-11T12:01:36.295Z,40.60
2023-01-11T12:04:25.005Z,34.38
2023-01-11T12:07:04.673Z,36.13
2023-01-11T12:09:43.711Z,38.04
2023-01-11T12:12:24.408Z,37.44
2023-01-11T12:15:24.506Z,37.14
2023-01-11T12:17:55.988Z,38.46
2023-01-11T12:20:22.794Z,36.80
2023-01-11T12:22:53.805Z,39.57
2023-01-11T12:25:22.175Z,35.13
2023-01-11T12:28:07.668Z,38.75
2023-01-11T12:30:47.077Z,37.38
2023-01-11T12:33:13.856Z,34.45
2023-01-11T12:36:09.900Z,35.69
2023-01-11T12:38:46.201Z,39.09
2023-01-11T12:41:19.118Z,35.71
2023-01-11T12:44:32.909Z,39.25
2023-01-11T12:47:09.405Z,36.77
2023-01-11T12:50:00.517Z,40.29
2023-01-11T12:52:41.631Z,40.83
2023-01-11T12:55:38.152Z,38.68
2023-01-11T12:58:35.340Z,37.56
2023-01-11T13:01:39.211Z,36.76
2023-01-11T13:04:46.845Z,36.69
2023-01-11T13:07:19.654Z,36.70
2023-01-11T13:09:52.545Z,38.87
2023-01-11T13:12:46.071Z,37.16
2023-01-11T13:15:13.082Z,35.81
2023-01-11T13:17:58.873Z,37.14
2023-01-11T13:21:00.805Z,37.01
2023-01-11T13:23:50.411Z,41.84
2023-01-11T13:26:25.775Z,38.99
2023-01-11T13:29:03.999Z,41.95
2023-01-11T13:31:33.749Z,42.21
2023-01-11T13:34:43.595Z,36.26
2023-01-11T13:37:26.089Z,35.44
2023-01-11T13:40:01.845Z,34.82
2023-01-11T13:42:41.927Z,41.43
2023-01-11T13:45:21.759Z,43.27
2023-01-11T13:47:55.896Z,34.63
2023-01-11T13:50:38.505Z,37.06
2023-01-11T13:53:43.901Z,44.50
2023-01-11T13:56:26.460Z,43.13
2023-01-11T13:59:03.452Z,37.02
2023-01-11T14:01:51.612Z,35.03
2023-01-11T14:04:30.267Z,39.40
2023-01-11T14:07:20.378Z,44.32
2023-01-11T14:09:53.545Z,37.26
2023-01-11T14:12:43.098Z,44.79
2023-01-11T14:15:38.739Z,35.80
2023-01-11T14:18:29.439Z,35.27
2023-01-11T14:21:07.504Z,35.59
2023-01-11T14:23:49.388Z,37.33
2023-01-11T14:26:19.257Z,37.18
2023-01-11T14:28:49.103Z,38.95
2023-01-11T14:31:16.059Z,37.19
2023-01-11T14:34:04.239Z,42.84
2023-01-11T14:37:05.657Z,36.00
2023-01-11T14:40:04.832Z,36.96
2023-01-11T14:43:02.976Z,35.64
2023-01-11T14:45:54.654Z,35.42
2023-01-11T14:48:40.656Z,37.70
2023-01-11T14:51:30.654Z,39.20
2023-01-11T14:54:31.816Z,39.90
2023-01-11T14:56:59.326Z,37.69
2023-01-11T14:59:29.215Z,42.67
2023-01-11T15:02:05.397Z,45.00
2023-01-11T15:04:55.256Z,41.34
2023-01-11T15:07:25.095Z,43.39
2023-01-11T15:09:56.840Z,43.81
2023-01-11T15:12:32.212Z,42.28
2023-01-11T15:15:19.007Z,42.54
2023-01-11T15:18:04.911Z,45.05
2023-01-11T15:20:33.942Z,45.11
2023-01-11T15:23:05.952Z,46.77
2023-01-11T15:25:35.961Z,47.05
2023-01-11T15:28:25.150Z,44.93
2023-01-11T15:30:53.022Z,46.54
2023-01-11T15:33:20.052Z,46.66
2023-01-11T15:35:56.029Z,47.07
2023-01-11T15:39:03.256Z,47.47
2023-01-11T15:42:04.348Z,45.60
2023-01-11T15:45:08.873Z,46.36
2023-01-11T15:47:41.998Z,48.91
2023-01-11T15:50:30.743Z,49.54
2023-01-11T15:53:12.751Z,50.60
2023-01-11T15:56:10.434Z,51.44
2023-01-11T15:59:02.691Z,51.50
2023-01-11T16:01:30.234Z,49.95
2023-01-11T16:04:21.478Z,48.57
2023-01-11T16:06:59.318Z,50.32
2023-01-11T16:10:00.338Z,50.43
2023-01-11T16:12:48.699Z,51.03
2023-01-11T16:15:33.586Z,51.99
2023-01-11T16:18:23.400Z,50.82
2023-01-11T16:21:04.881Z,50.32
2023-01-11T16:23:32.717Z,51.72
2023-01-11T16:26:00.541Z,52.28
2023-01-11T16:28:28.225Z,51.40
2023-01-11T16:30:57.222Z,51.65
2023-01-11T16:33:29.804Z,52.38
2023-01-11T16:36:03.201Z,51.79
2023-01-11T16:38:31.804Z,52.24
2023-01-11T16:40:59.838Z,53.61
2023-01-11T16:43:29.764Z,54.21
2023-01-11T16:45:56.978Z,54.83
2023-01-11T16:48:25.961Z,54.43
2023-01-11T16:51:04.024Z,53.65
2023-01-11T16:53:39.599Z,55.11
2023-01-11T16:56:36.488Z,53.29
2023-01-11T16:59:15.741Z,53.37
2023-01-11T17:01:45.951Z,53.55
2023-01-11T17:04:36.637Z,53.66
2023-01-11T17:07:27.700Z,53.68
2023-01-11T17:10:30.486Z,53.91
2023-01-11T17:16:51.382Z,55.73
2023-01-11T17:19:33.729Z,55.63
2023-01-11T17:22:15.235Z,56.01
2023-01-11T17:25:07.784Z,56.79
2023-01-11T17:27:50.924Z,57.67
2023-01-11T17:30:22.023Z,58.06
2023-01-11T17:32:51.053Z,56.88
2023-01-11T17:35:24.786Z,55.89
2023-01-11T17:37:57.955Z,56.58
2023-01-11T17:40:39.016Z,56.28
2023-01-11T17:43:31.905Z,56.52
2023-01-11T17:46:02.886Z,56.96
2023-01-11T17:48:34.715Z,56.98
2023-01-11T17:51:05.769Z,57.12
2023-01-11T17:53:37.676Z,57.00
2023-01-11T17:56:07.924Z,57.52
2023-01-11T17:58:42.561Z,57.79
2023-01-11T18:01:20.657Z,57.40
2023-01-11T18:03:59.317Z,56.74
2023-01-11T18:06:40.204Z,56.50
2023-01-11T18:09:32.490Z,57.80
2023-01-11T18:12:18.690Z,57.67
2023-01-11T18:14:55.655Z,57.58
2023-01-11T18:17:42.336Z,57.69
2023-01-11T18:20:21.501Z,57.48
2023-01-11T18:23:16.920Z,57.59
2023-01-11T18:25:49.057Z,57.58
2023-01-11T18:28:20.393Z,57.64
2023-01-11T18:30:54.409Z,58.27
2023-01-11T18:33:24.398Z,56.48
2023-01-11T18:36:03.009Z,56.82
2023-01-11T18:38:35.128Z,56.77
2023-01-11T18:41:34.170Z,57.11
2023-01-11T18:44:02.973Z,57.93
2023-01-11T18:46:29.860Z,57.20
2023-01-11T18:49:00.196Z,57.03
2023-01-11T18:51:35.731Z,57.13
2023-01-11T18:54:02.705Z,57.28
2023-01-11T18:56:32.789Z,57.79
2023-01-11T18:58:59.640Z,57.76
2023-01-11T19:01:26.682Z,58.82
2023-01-11T19:03:54.612Z,58.85
2023-01-11T19:06:23.099Z,57.58
2023-01-11T19:08:49.860Z,58.47
2023-01-11T19:11:19.854Z,57.81
2023-01-11T19:13:47.279Z,57.07
2023-01-11T19:16:18.029Z,57.29
2023-01-11T19:18:48.542Z,56.65
2023-01-11T19:21:15.678Z,56.33
2023-01-11T19:23:42.603Z,56.94
2023-01-11T19:26:09.652Z,57.27
2023-01-11T19:28:37.752Z,56.62
2023-01-11T19:31:09.349Z,57.35
2023-01-11T19:33:36.605Z,57.20
2023-01-11T19:36:08.158Z,56.90
2023-01-11T19:38:35.868Z,56.56
2023-01-11T19:41:11.160Z,56.35
2023-01-11T19:43:47.561Z,56.06
2023-01-11T19:46:30.692Z,56.23
2023-01-11T19:48:58.996Z,56.29
2023-01-11T19:51:28.233Z,57.52
2023-01-11T19:53:56.609Z,57.97
2023-01-11T19:56:24.419Z,57.90
2023-01-11T19:58:54.334Z,58.64
2023-01-11T20:01:23.368Z,56.82
2023-01-11T20:03:53.025Z,56.10
2023-01-11T20:06:20.577Z,56.71
2023-01-11T20:08:51.378Z,57.93
2023-01-11T20:11:20.401Z,57.80
2023-01-11T20:13:53.182Z,58.03
2023-01-11T20:16:22.887Z,58.24
2023-01-11T20:18:57.337Z,58.57
2023-01-11T20:21:27.695Z,59.58
2023-01-11T20:23:59.874Z,59.00
2023-01-11T20:26:34.254Z,59.99
2023-01-11T20:29:02.099Z,59.89
2023-01-11T20:31:31.994Z,60.04
2023-01-11T20:34:00.357Z,60.67
2023-01-11T20:36:33.112Z,60.44
2023-01-11T20:39:01.636Z,60.54
2023-01-11T20:41:47.934Z,60.20
2023-01-11T20:44:20.532Z,59.44
2023-01-11T20:46:52.044Z,58.74
2023-01-11T20:49:27.000Z,60.66
2023-01-11T20:52:00.268Z,60.12
2023-01-11T20:54:27.862Z,59.55
2023-01-11T20:57:01.404Z,58.58
2023-01-11T20:59:28.949Z,58.01
2023-01-11T21:01:56.137Z,56.80
2023-01-11T21:04:28.352Z,57.06
2023-01-11T21:06:55.675Z,56.34
2023-01-11T21:09:22.634Z,56.13
2023-01-11T21:11:54.271Z,56.26
2023-01-11T21:14:22.728Z,56.28
2023-01-11T21:16:50.540Z,56.62
2023-01-11T21:19:18.936Z,57.12
2023-01-11T21:21:49.590Z,57.30
2023-01-11T21:24:18.118Z,56.41
2023-01-11T21:27:15.003Z,56.38
2023-01-11T21:29:43.533Z,55.61
2023-01-11T21:32:10.493Z,55.75
2023-01-11T21:34:39.011Z,56.24
2023-01-11T21:37:08.109Z,59.32
2023-01-11T21:39:37.132Z,55.72
2023-01-11T21:42:05.408Z,55.88
2023-01-11T21:44:34.092Z,55.80
2023-01-11T21:47:05.844Z,55.77
2023-01-11T21:49:33.484Z,55.75
2023-01-11T21:52:05.191Z,57.40
2023-01-11T21:54:32.655Z,56.94
2023-01-11T21:56:59.517Z,58.72
2023-01-11T21:59:26.536Z,57.08
2023-01-11T22:01:59.065Z,56.80
2023-01-11T22:04:29.439Z,59.80
2023-01-11T22:07:01.467Z,57.12
2023-01-11T22:09:28.716Z,56.59
2023-01-11T22:11:57.577Z,55.84
2023-01-11T22:14:26.501Z,56.20
2023-01-11T22:16:53.713Z,56.55
2023-01-11T22:19:23.289Z,56.21
2023-01-11T22:21:51.277Z,56.11
2023-01-11T22:24:22.010Z,56.79
2023-01-11T22:26:51.543Z,57.89
2023-01-11T22:29:21.027Z,57.28
2023-01-11T22:31:55.198Z,57.89
2023-01-11T22:34:22.957Z,56.71
2023-01-11T22:36:50.132Z,56.80
2023-01-11T22:39:19.814Z,56.90
2023-01-11T22:41:49.501Z,57.11
2023-01-11T22:44:16.674Z,57.31
2023-01-11T22:46:44.901Z,59.92
2023-01-11T22:49:18.434Z,58.42
2023-01-11T22:51:46.870Z,58.76
2023-01-11T22:54:16.883Z,58.23
2023-01-11T22:56:45.031Z,59.45
2023-01-11T22:59:12.444Z,59.77
2023-01-11T23:01:41.793Z,57.95
2023-01-11T23:04:12.619Z,56.96
2023-01-11T23:06:46.041Z,56.51
2023-01-11T23:09:16.163Z,56.78
2023-01-11T23:12:01.954Z,56.46
2023-01-11T23:14:33.960Z,54.96
2023-01-11T23:17:12.939Z,54.94
2023-01-11T23:19:47.743Z,54.75
2023-01-11T23:22:17.854Z,54.52
2023-01-11T23:24:44.786Z,55.11
2023-01-11T23:27:11.855Z,57.46
2023-01-11T23:29:38.763Z,55.33
2023-01-11T23:32:05.964Z,55.83
2023-01-11T23:34:34.209Z,55.14
2023-01-11T23:37:02.142Z,55.54
2023-01-11T23:39:29.480Z,56.50
2023-01-11T23:42:14.793Z,55.00
2023-01-11T23:44:42.531Z,54.93
2023-01-11T23:47:36.751Z,55.62
2023-01-11T23:50:03.800Z,55.97
2023-01-11T23:52:32.690Z,58.56
2023-01-11T23:55:04.381Z,55.63
2023-01-11T23:57:32.491Z,57.09
2023-01-11T23:59:59.456Z,59.97
